createdAt,value
2023-02-08T00:00:45.330Z,50.918728
2023-02-08T00:01:45.322Z,50.921486
2023-02-08T01:22:41.916Z,50.877365
2023-02-08T01:23:41.938Z,50.876526
2023-02-08T01:24:41.910Z,50.876019
2023-02-08T01:25:41.913Z,50.875568
2023-02-08T01:26:41.878Z,50.875336
2023-02-08T01:27:41.882Z,50.875355
2023-02-08T01:28:41.868Z,50.875370
2023-02-08T01:29:41.836Z,50.875336
2023-02-08T01:30:42.295Z,50.875389
2023-02-08T01:31:41.882Z,50.875351
2023-02-08T01:32:41.849Z,50.875347
2023-02-08T01:33:41.802Z,50.875362
2023-02-08T01:34:44.037Z,50.875305
2023-02-08T01:35:41.809Z,50.875359
2023-02-08T01:36:41.844Z,50.875305
2023-02-08T01:37:41.779Z,50.875309
2023-02-08T01:38:41.754Z,50.875252
2023-02-08T01:39:42.757Z,50.875282
2023-02-08T01:40:41.970Z,50.875359
2023-02-08T01:41:41.780Z,50.875332
2023-02-08T01:42:41.745Z,50.875397
2023-02-08T01:43:41.739Z,50.875416
2023-02-08T01:44:42.712Z,50.875347
2023-02-08T01:45:41.725Z,50.875366
2023-02-08T01:46:41.731Z,50.875389
2023-02-08T01:47:41.679Z,50.875359
2023-02-08T01:48:41.667Z,50.875343
2023-02-08T01:49:41.666Z,50.875340
2023-02-08T01:50:42.122Z,50.875397
2023-02-08T01:51:41.663Z,50.875397
2023-02-08T01:52:41.624Z,50.875401
2023-02-08T01:53:41.622Z,50.875713
2023-02-08T01:54:41.617Z,50.875481
2023-02-08T01:55:41.578Z,50.875332
2023-02-08T01:56:41.612Z,50.875164
2023-02-08T01:57:41.571Z,50.875355
2023-02-08T01:58:41.573Z,50.875393
2023-02-08T01:59:41.563Z,50.875305
2023-02-08T02:00:42.087Z,50.875317
2023-02-08T02:01:41.570Z,50.875370
2023-02-08T02:02:41.517Z,50.875416
2023-02-08T02:03:41.549Z,50.875458
2023-02-08T02:04:41.600Z,50.875484
2023-02-08T02:05:41.537Z,50.875786
2023-02-08T02:06:41.590Z,50.875443
2023-02-08T02:07:41.512Z,50.875332
2023-02-08T02:08:41.487Z,50.875359
2023-02-08T02:09:41.492Z,50.875385
2023-02-08T02:10:41.885Z,50.875336
2023-02-08T02:11:41.518Z,50.875381
2023-02-08T02:12:41.449Z,50.875385
2023-02-08T02:13:41.488Z,50.875423
2023-02-08T02:14:41.458Z,50.875427
2023-02-08T02:15:41.498Z,50.875366
2023-02-08T02:16:41.512Z,50.875340
2023-02-08T02:17:41.418Z,50.875454
2023-02-08T02:18:41.446Z,50.875378
2023-02-08T02:19:41.451Z,50.875374
2023-02-08T02:20:41.737Z,50.875351
2023-02-08T02:21:41.409Z,50.875782
2023-02-08T02:22:41.441Z,50.875214
2023-02-08T02:23:41.385Z,50.875317
2023-02-08T02:24:41.406Z,50.875301
2023-02-08T02:25:41.332Z,50.875309
2023-02-08T02:26:41.341Z,50.875278
2023-02-08T02:27:41.343Z,50.875431
2023-02-08T02:28:41.323Z,50.875355
2023-02-08T02:29:41.304Z,50.875416
2023-02-08T02:30:42.685Z,50.875336
2023-02-08T02:31:41.384Z,50.875401
2023-02-08T02:32:41.312Z,50.875652
2023-02-08T02:33:41.278Z,50.876968
2023-02-08T02:34:41.280Z,50.876213
2023-02-08T02:35:41.243Z,50.876213
2023-02-08T02:36:41.227Z,50.876213
2023-02-08T02:37:41.284Z,50.876213
2023-02-08T02:38:41.233Z,50.875488
2023-02-08T02:39:41.226Z,50.875244
2023-02-08T02:40:41.484Z,50.875549
2023-02-08T02:41:41.221Z,50.875141
2023-02-08T02:42:41.224Z,50.874741
2023-02-08T02:43:41.179Z,50.875397
2023-02-08T02:44:41.174Z,50.875099
2023-02-08T02:45:41.181Z,50.874874
2023-02-08T02:46:41.149Z,50.874992
2023-02-08T02:47:41.174Z,50.875191
2023-02-08T02:48:41.178Z,50.875427
2023-02-08T02:49:41.156Z,50.875439
2023-02-08T02:50:41.385Z,50.875252
2023-02-08T02:51:41.120Z,50.875267
2023-02-08T02:52:41.133Z,50.875420
2023-02-08T02:53:41.100Z,50.875355
2023-02-08T02:54:41.107Z,50.875473
2023-02-08T02:55:41.080Z,50.875526
2023-02-08T02:56:41.078Z,50.875565
2023-02-08T02:57:41.060Z,50.875526
2023-02-08T02:58:41.042Z,50.875534
2023-02-08T02:59:41.032Z,50.875553
2023-02-08T03:00:41.397Z,50.875690
2023-02-08T03:01:41.030Z,50.875778
2023-02-08T03:02:41.041Z,50.875675
2023-02-08T03:03:40.994Z,50.875332
2023-02-08T03:04:41.098Z,50.875278
2023-02-08T03:05:40.993Z,50.875336
2023-02-08T03:06:40.973Z,50.875099
2023-02-08T03:07:40.969Z,50.875546
2023-02-08T03:08:40.981Z,50.875576
2023-02-08T03:09:40.970Z,50.875473
2023-02-08T03:10:41.276Z,50.875393
2023-02-08T03:11:40.925Z,50.875481
2023-02-08T03:12:40.916Z,50.875469
2023-02-08T03:13:40.894Z,50.875362
2023-02-08T03:14:40.892Z,50.875286
2023-02-08T03:15:40.907Z,50.875324
2023-02-08T03:16:41.006Z,50.875313
2023-02-08T03:17:40.895Z,50.875294
2023-02-08T03:18:40.873Z,50.875221
2023-02-08T03:19:40.872Z,50.875275
2023-02-08T03:20:41.138Z,50.875404
2023-02-08T03:21:40.828Z,50.875412
2023-02-08T03:22:40.834Z,50.875313
2023-02-08T03:23:40.808Z,50.875332
2023-02-08T03:24:40.787Z,50.875435
2023-02-08T03:25:40.777Z,50.875431
2023-02-08T03:26:40.804Z,50.875736
2023-02-08T03:27:40.756Z,50.875587
2023-02-08T03:28:40.767Z,50.875038
2023-02-08T03:29:40.754Z,50.875088
2023-02-08T03:30:41.220Z,50.875336
2023-02-08T03:31:40.855Z,50.875011
2023-02-08T03:32:40.704Z,50.875263
2023-02-08T03:33:40.736Z,50.875267
2023-02-08T03:34:40.727Z,50.875328
2023-02-08T03:35:40.702Z,50.875237
2023-02-08T03:36:40.694Z,50.875404
2023-02-08T03:37:40.693Z,50.875618
2023-02-08T03:38:40.710Z,50.875450
2023-02-08T03:39:40.673Z,50.875660
2023-02-08T03:40:40.999Z,50.875511
2023-02-08T03:41:40.663Z,50.875401
2023-02-08T03:42:40.652Z,50.875656
2023-02-08T03:43:40.649Z,50.878185
2023-02-08T03:44:41.596Z,50.883400
2023-02-08T03:45:40.610Z,50.885159
2023-02-08T03:46:40.608Z,50.880272
2023-02-08T03:47:40.585Z,50.876888
2023-02-08T03:48:40.597Z,50.876869
2023-02-08T03:49:40.596Z,50.875519
2023-02-08T03:50:40.817Z,50.875237
2023-02-08T03:51:40.586Z,50.875187
2023-02-08T03:52:40.547Z,50.875381
2023-02-08T03:53:40.612Z,50.875381
2023-02-08T03:54:40.513Z,50.875324
2023-02-08T03:55:40.516Z,50.875359
2023-02-08T03:56:40.507Z,50.875397
2023-02-08T03:57:40.481Z,50.875088
2023-02-08T03:58:40.498Z,50.875458
2023-02-08T03:59:40.490Z,50.875969
2023-02-08T04:00:40.751Z,50.875820
2023-02-08T04:01:40.463Z,50.875523
2023-02-08T04:02:40.496Z,50.875401
2023-02-08T04:03:40.459Z,50.875347
2023-02-08T04:04:40.423Z,50.875278
2023-02-08T04:05:40.399Z,50.875317
2023-02-08T04:06:40.395Z,50.875687
2023-02-08T04:07:40.411Z,50.875477
2023-02-08T04:08:40.354Z,50.875393
2023-02-08T04:09:40.382Z,50.876122
2023-02-08T04:10:40.664Z,50.877926
2023-02-08T04:11:40.355Z,50.878456
2023-02-08T04:12:40.344Z,50.878860
2023-02-08T04:13:40.342Z,50.878315
2023-02-08T04:14:40.322Z,50.878597
2023-02-08T04:15:40.319Z,50.874073
2023-02-08T04:16:41.299Z,50.873447
2023-02-08T04:17:40.307Z,50.875099
2023-02-08T04:18:40.277Z,50.875443
2023-02-08T04:19:40.265Z,50.875366
2023-02-08T04:20:40.579Z,50.875248
2023-02-08T04:21:40.276Z,50.875389
2023-02-08T04:22:40.210Z,50.875240
2023-02-08T04:23:40.307Z,50.875286
2023-02-08T04:24:40.228Z,50.875359
2023-02-08T04:25:40.211Z,50.875435
2023-02-08T04:26:40.206Z,50.875462
2023-02-08T04:27:40.215Z,50.875362
2023-02-08T04:28:40.204Z,50.875595
2023-02-08T04:29:40.166Z,50.875420
2023-02-08T04:30:40.556Z,50.875404
2023-02-08T04:31:40.253Z,50.875084
2023-02-08T04:32:40.192Z,50.874924
2023-02-08T04:33:40.142Z,50.875561
2023-02-08T04:34:40.155Z,50.875397
2023-02-08T04:35:40.144Z,50.875172
2023-02-08T04:36:40.129Z,50.875126
2023-02-08T04:37:40.128Z,50.875015
2023-02-08T04:38:40.103Z,50.875393
2023-02-08T04:39:40.081Z,50.875435
2023-02-08T04:40:40.408Z,50.875275
2023-02-08T04:41:40.084Z,50.875378
2023-02-08T04:42:40.077Z,50.875378
2023-02-08T04:43:40.050Z,50.874962
2023-02-08T04:44:40.013Z,50.875511
2023-02-08T04:45:40.034Z,50.875618
2023-02-08T04:46:40.068Z,50.875511
2023-02-08T04:47:40.026Z,50.875450
2023-02-08T04:48:40.006Z,50.875641
2023-02-08T04:49:39.988Z,50.875610
2023-02-08T04:50:40.174Z,50.875351
2023-02-08T04:51:40.000Z,50.875294
2023-02-08T04:52:39.967Z,50.875343
2023-02-08T04:53:39.990Z,50.875462
2023-02-08T04:54:40.918Z,50.875324
2023-02-08T04:55:40.943Z,50.875366
2023-02-08T04:56:39.930Z,50.875351
2023-02-08T04:57:39.938Z,50.875305
2023-02-08T04:58:39.897Z,50.875278
2023-02-08T04:59:39.890Z,50.875290
2023-02-08T05:00:40.316Z,50.875340
2023-02-08T05:01:39.917Z,50.875389
2023-02-08T05:02:39.850Z,50.875492
2023-02-08T05:03:39.874Z,50.875408
2023-02-08T05:04:39.866Z,50.876202
2023-02-08T05:05:39.826Z,50.875431
2023-02-08T05:06:39.852Z,50.875263
2023-02-08T05:07:39.813Z,50.875179
2023-02-08T05:08:39.817Z,50.875210
2023-02-08T05:09:39.803Z,50.875366
2023-02-08T05:10:40.074Z,50.875385
2023-02-08T05:11:39.772Z,50.875210
2023-02-08T05:12:39.769Z,50.876968
2023-02-08T05:13:39.788Z,50.879837
2023-02-08T05:14:39.786Z,50.877014
2023-02-08T05:15:39.744Z,50.875378
2023-02-08T05:16:39.749Z,50.875370
2023-02-08T05:17:39.716Z,50.875328
2023-02-08T05:18:39.710Z,50.875305
2023-02-08T05:19:39.720Z,50.875263
2023-02-08T05:20:40.016Z,50.875305
2023-02-08T05:21:39.701Z,50.875263
2023-02-08T05:22:39.675Z,50.875500
2023-02-08T05:23:39.653Z,50.875488
2023-02-08T05:24:39.701Z,50.875324
2023-02-08T05:25:39.648Z,50.875324
2023-02-08T05:26:39.634Z,50.875347
2023-02-08T05:27:39.645Z,50.875359
2023-02-08T05:28:39.646Z,50.875362
2023-02-08T05:29:39.636Z,50.875355
2023-02-08T05:30:39.909Z,50.875435
2023-02-08T05:31:39.790Z,50.875362
2023-02-08T05:32:39.570Z,50.875267
2023-02-08T05:33:39.558Z,50.875351
2023-02-08T05:34:39.587Z,50.875122
2023-02-08T05:35:39.534Z,50.875328
2023-02-08T05:36:39.523Z,50.875561
2023-02-08T05:37:39.537Z,50.875351
2023-02-08T05:38:39.513Z,50.875347
2023-02-08T05:39:39.524Z,50.875317
2023-02-08T05:40:39.829Z,50.875355
2023-02-08T05:41:39.511Z,50.875385
2023-02-08T05:42:39.484Z,50.875366
2023-02-08T05:43:39.465Z,50.875343
2023-02-08T05:44:39.477Z,50.875435
2023-02-08T05:45:39.431Z,50.875313
2023-02-08T05:46:39.465Z,50.875404
2023-02-08T05:47:39.463Z,50.875111
2023-02-08T05:48:39.421Z,50.875301
2023-02-08T05:49:39.427Z,50.875378
2023-02-08T05:50:39.694Z,50.875309
2023-02-08T05:51:39.411Z,50.875351
2023-02-08T05:52:39.402Z,50.875401
2023-02-08T05:53:39.388Z,50.875511
2023-02-08T05:54:39.380Z,50.875134
2023-02-08T05:55:39.344Z,50.875347
2023-02-08T05:56:39.355Z,50.875221
2023-02-08T05:57:39.305Z,50.875462
2023-02-08T05:58:39.322Z,50.875378
2023-02-08T05:59:39.391Z,50.876041
2023-02-08T06:00:39.658Z,50.875610
2023-02-08T06:01:40.295Z,50.875198
2023-02-08T06:02:39.325Z,50.875198
2023-02-08T06:03:39.283Z,50.875198
2023-02-08T06:04:39.380Z,50.875198
2023-02-08T06:05:39.279Z,50.875198
2023-02-08T06:06:39.284Z,50.875198
2023-02-08T06:07:39.214Z,50.875198
2023-02-08T06:08:39.266Z,50.875198
2023-02-08T06:09:39.207Z,50.875198
2023-02-08T06:10:39.524Z,50.875198
2023-02-08T06:11:39.192Z,50.875198
2023-02-08T06:12:39.211Z,50.875198
2023-02-08T06:13:39.191Z,50.875198
2023-02-08T06:14:39.234Z,50.875198
2023-02-08T06:15:39.158Z,50.875198
2023-02-08T06:16:39.174Z,50.875198
2023-02-08T06:17:39.220Z,50.875198
2023-02-08T06:18:39.141Z,50.875198
2023-02-08T06:19:39.202Z,50.875198
2023-02-08T06:20:39.393Z,50.875198
2023-02-08T06:21:39.152Z,50.875198
2023-02-08T06:22:39.181Z,50.875198
2023-02-08T06:23:39.110Z,50.875198
2023-02-08T06:24:39.117Z,50.875198
2023-02-08T06:25:39.086Z,50.875198
2023-02-08T06:26:39.084Z,50.875198
2023-02-08T06:27:39.041Z,50.875198
2023-02-08T06:28:39.156Z,50.875198
2023-02-08T06:30:14.846Z,50.875198
2023-02-08T06:30:39.554Z,50.875198
2023-02-08T06:32:13.461Z,50.875198
2023-02-08T06:32:39.113Z,50.875198
2023-02-08T06:33:38.982Z,50.875198
2023-02-08T06:34:39.083Z,50.875198
2023-02-08T06:35:39.040Z,50.875198
2023-02-08T06:36:38.991Z,50.875198
2023-02-08T06:37:38.993Z,50.875198
2023-02-08T06:38:38.980Z,50.875198
2023-02-08T06:39:39.001Z,50.875198
2023-02-08T06:40:39.300Z,50.875198
2023-02-08T06:41:39.799Z,50.875198
2023-02-08T06:42:38.915Z,50.875198
2023-02-08T06:43:38.955Z,50.875198
2023-02-08T06:44:45.905Z,50.875198
2023-02-08T06:45:40.007Z,50.875198
2023-02-08T06:46:38.950Z,50.873817
2023-02-08T06:47:39.202Z,50.873837
2023-02-08T06:48:38.881Z,50.875263
2023-02-08T06:49:38.893Z,50.876556
2023-02-08T06:50:39.231Z,50.875534
2023-02-08T06:51:38.875Z,50.875568
2023-02-08T06:52:38.912Z,50.875771
2023-02-08T06:53:38.942Z,50.875225
2023-02-08T06:54:38.875Z,50.874565
2023-02-08T06:55:38.912Z,50.875233
2023-02-08T06:56:38.964Z,50.875362
2023-02-08T06:57:38.863Z,50.875874
2023-02-08T06:58:38.806Z,50.877068
2023-02-08T06:59:38.785Z,50.875851
2023-02-08T07:00:39.113Z,50.875900
2023-02-08T07:01:38.709Z,50.875652
2023-02-08T07:02:38.895Z,50.875149
2023-02-08T07:03:38.764Z,50.875267
2023-02-08T07:04:38.941Z,50.875866
2023-02-08T07:05:38.739Z,50.875843
2023-02-08T07:06:38.715Z,50.875835
2023-02-08T07:07:38.732Z,50.875332
2023-02-08T07:08:38.674Z,50.875320
2023-02-08T07:09:38.658Z,50.875343
2023-02-08T07:10:39.109Z,50.875340
2023-02-08T07:11:38.679Z,50.875317
2023-02-08T07:12:38.696Z,50.875401
2023-02-08T07:13:38.880Z,50.874516
2023-02-08T07:14:38.666Z,50.874802
2023-02-08T07:15:38.698Z,50.875278
2023-02-08T07:16:38.767Z,50.875408
2023-02-08T07:17:38.678Z,50.875340
2023-02-08T07:18:39.732Z,50.875343
2023-02-08T07:19:38.642Z,50.875416
2023-02-08T07:20:38.903Z,50.875511
2023-02-08T07:21:38.619Z,50.875488
2023-02-08T07:22:38.621Z,50.875408
2023-02-08T07:23:38.622Z,50.875572
2023-02-08T07:24:38.646Z,50.875301
2023-02-08T07:25:38.591Z,50.874649
2023-02-08T07:26:38.666Z,50.874763
2023-02-08T07:27:38.639Z,50.875206
2023-02-08T07:28:38.562Z,50.875416
2023-02-08T07:29:38.495Z,50.875404
2023-02-08T07:30:38.879Z,50.875214
2023-02-08T07:31:38.613Z,50.875202
2023-02-08T07:32:38.451Z,50.875359
2023-02-08T07:33:38.562Z,50.875286
2023-02-08T07:34:38.516Z,50.875351
2023-02-08T07:35:38.644Z,50.875290
2023-02-08T07:36:38.437Z,50.875355
2023-02-08T07:37:38.533Z,50.875301
2023-02-08T07:38:38.646Z,50.875324
2023-02-08T07:39:38.535Z,50.875214
2023-02-08T07:40:38.616Z,50.875420
2023-02-08T07:41:38.461Z,50.875160
2023-02-08T07:42:38.557Z,50.875237
2023-02-08T07:43:38.588Z,50.875225
2023-02-08T07:44:38.360Z,50.875042
2023-02-08T07:45:38.924Z,50.875439
2023-02-08T07:46:38.449Z,50.875275
2023-02-08T07:47:38.994Z,50.875298
2023-02-08T07:48:40.255Z,50.875454
2023-02-08T07:49:39.273Z,50.875412
2023-02-08T07:50:38.352Z,50.875305
2023-02-08T07:51:38.267Z,50.875343
2023-02-08T07:52:38.252Z,50.875389
2023-02-08T07:53:38.255Z,50.875397
2023-02-08T07:54:38.205Z,50.875271
2023-02-08T07:55:38.259Z,50.875317
2023-02-08T07:56:38.240Z,50.875412
2023-02-08T07:57:38.204Z,50.875477
2023-02-08T07:58:38.198Z,50.875435
2023-02-08T07:59:38.178Z,50.875473
2023-02-08T08:00:38.537Z,50.875423
2023-02-08T08:01:38.172Z,50.871353
2023-02-08T08:02:38.183Z,50.870796
2023-02-08T08:03:38.158Z,50.860073
2023-02-08T08:04:38.163Z,50.860073
2023-02-08T08:05:38.120Z,50.860073
2023-02-08T08:06:38.080Z,50.860073
2023-02-08T08:07:38.103Z,50.860073
2023-02-08T08:08:38.089Z,50.860073
2023-02-08T08:09:38.055Z,50.860073
2023-02-08T08:10:38.290Z,50.860073
2023-02-08T08:11:38.083Z,50.860073
2023-02-08T08:12:38.030Z,50.860073
2023-02-08T08:13:38.027Z,50.860073
2023-02-08T08:14:38.052Z,50.860073
2023-02-08T08:15:38.097Z,50.860073
2023-02-08T08:16:38.018Z,50.860073
2023-02-08T08:17:38.006Z,50.860073
2023-02-08T08:18:37.995Z,50.860073
2023-02-08T08:19:37.996Z,50.860073
2023-02-08T08:20:38.122Z,50.860073
2023-02-08T08:21:37.977Z,50.860073
2023-02-08T08:22:37.934Z,50.860073
2023-02-08T08:23:37.969Z,50.860073
2023-02-08T08:24:37.966Z,50.860073
2023-02-08T08:25:37.954Z,50.860073
2023-02-08T08:26:37.936Z,50.860073
2023-02-08T08:27:37.974Z,50.860073
2023-02-08T08:28:37.903Z,50.860073
2023-02-08T08:29:37.889Z,50.860073
2023-02-08T08:30:37.946Z,50.860073
2023-02-08T08:31:37.922Z,50.860073
2023-02-08T08:32:37.864Z,50.860073
2023-02-08T08:33:37.841Z,50.860073
2023-02-08T08:34:37.828Z,50.860073
2023-02-08T08:35:37.800Z,50.860073
2023-02-08T08:36:37.813Z,50.860073
2023-02-08T08:37:37.877Z,50.860073
2023-02-08T08:38:37.797Z,50.860073
2023-02-08T08:39:37.787Z,50.860073
2023-02-08T08:40:37.773Z,50.860073
2023-02-08T08:41:37.768Z,50.860073
2023-02-08T08:42:37.744Z,50.860073
2023-02-08T08:43:37.739Z,50.860073
2023-02-08T08:44:37.723Z,50.860073
2023-02-08T08:45:37.739Z,50.860073
2023-02-08T08:46:37.743Z,50.860073
2023-02-08T08:47:37.698Z,50.860073
2023-02-08T08:48:37.710Z,50.860073
2023-02-08T08:49:37.679Z,50.860073
2023-02-08T08:50:37.664Z,50.860073
2023-02-08T08:51:37.680Z,50.860073
2023-02-08T08:52:37.666Z,50.860073
2023-02-08T08:53:37.640Z,50.860073
2023-02-08T08:54:37.667Z,50.860073
2023-02-08T08:55:37.640Z,50.860073
2023-02-08T08:56:37.652Z,50.860073
2023-02-08T08:57:37.631Z,50.860073
2023-02-08T08:58:37.636Z,50.860073
2023-02-08T08:59:37.562Z,50.860073
2023-02-08T09:00:37.564Z,50.860073
2023-02-08T09:01:37.585Z,50.860073
2023-02-08T09:02:37.562Z,50.860073
2023-02-08T09:03:37.730Z,50.860073
2023-02-08T09:04:37.508Z,50.860073
2023-02-08T09:05:37.513Z,50.860073
2023-02-08T09:06:37.523Z,50.860073
2023-02-08T09:07:38.486Z,50.860073
2023-02-08T09:08:37.496Z,50.860073
2023-02-08T09:09:37.503Z,50.860073
2023-02-08T09:10:37.473Z,50.860073
2023-02-08T09:11:37.449Z,50.860073
2023-02-08T09:12:37.485Z,50.860073
2023-02-08T09:13:37.451Z,50.860073
2023-02-08T09:14:37.421Z,50.860073
2023-02-08T09:15:37.442Z,50.860073
2023-02-08T09:16:37.420Z,50.860073
2023-02-08T09:17:37.389Z,50.860073
2023-02-08T09:18:38.421Z,50.860073
2023-02-08T09:19:37.371Z,50.860073
2023-02-08T09:20:37.371Z,50.860073
2023-02-08T09:21:37.364Z,50.860073
2023-02-08T09:22:37.354Z,50.860073
2023-02-08T09:23:37.368Z,50.860073
2023-02-08T09:24:37.299Z,50.860073
2023-02-08T09:25:37.315Z,50.860073
2023-02-08T09:26:37.300Z,50.860073
2023-02-08T09:27:37.317Z,50.860073
2023-02-08T09:28:37.299Z,50.860073
2023-02-08T09:29:37.313Z,50.860073
2023-02-08T09:30:37.293Z,50.860073
2023-02-08T09:31:37.398Z,50.860073
2023-02-08T09:32:37.310Z,50.860073
2023-02-08T09:33:37.293Z,50.860073
2023-02-08T09:34:37.288Z,50.860073
2023-02-08T09:35:37.284Z,50.860073
2023-02-08T09:36:37.233Z,50.860073
2023-02-08T09:37:37.412Z,50.860073
2023-02-08T09:38:37.172Z,50.860073
2023-02-08T09:39:37.195Z,50.860073
2023-02-08T09:40:37.229Z,50.860073
2023-02-08T09:41:37.184Z,50.860073
2023-02-08T09:42:37.227Z,50.860073
2023-02-08T09:43:37.218Z,50.860073
2023-02-08T09:44:37.228Z,50.860073
2023-02-08T09:45:37.771Z,50.860073
2023-02-08T09:46:37.127Z,50.860073
2023-02-08T09:47:37.223Z,50.860073
2023-02-08T09:48:37.144Z,50.860073
2023-02-08T09:49:37.135Z,50.860073
2023-02-08T09:50:37.083Z,50.860073
2023-02-08T09:51:37.118Z,50.860073
2023-02-08T09:52:37.161Z,50.860073
2023-02-08T09:53:37.027Z,50.860073
2023-02-08T09:54:37.104Z,50.860073
2023-02-08T09:55:37.078Z,50.860073
2023-02-08T09:56:37.103Z,50.860073
2023-02-08T09:57:37.081Z,50.860073
2023-02-08T09:58:37.011Z,50.860073
2023-02-08T09:59:37.047Z,50.860073
2023-02-08T12:07:06.625Z,50.875923
2023-02-08T12:08:06.412Z,50.875431
2023-02-08T15:04:35.404Z,50.875385
2023-02-08T15:05:35.382Z,50.875412
2023-02-08T21:40:15.923Z,50.875782
2023-02-08T21:41:15.902Z,50.875782
2023-02-08T21:42:15.863Z,50.875874
2023-02-08T21:43:15.841Z,50.875519
2023-02-08T21:44:15.843Z,50.875519
2023-02-08T21:45:15.838Z,50.875557
2023-02-08T21:46:16.010Z,50.875195
2023-02-08T21:47:15.825Z,50.875172
2023-02-08T21:48:15.814Z,50.875275
2023-02-08T21:49:15.789Z,50.875237
2023-02-08T21:50:15.801Z,50.875298
2023-02-08T21:51:17.304Z,50.875370
2023-02-08T21:52:15.782Z,50.875366
2023-02-08T21:53:15.753Z,50.875324
2023-02-08T21:54:15.732Z,50.875237
2023-02-08T21:55:15.724Z,50.875309
2023-02-08T21:56:15.757Z,50.875244
2023-02-08T21:57:15.743Z,50.875160
2023-02-08T21:58:15.839Z,50.875175
2023-02-08T21:59:15.666Z,50.875233
2023-02-08T22:00:15.685Z,50.875336
2023-02-08T22:01:15.733Z,50.875259
2023-02-08T22:02:15.707Z,50.875278
2023-02-08T22:03:15.715Z,50.875134
2023-02-08T22:04:15.648Z,50.875092
2023-02-08T22:05:15.656Z,50.875095
2023-02-08T22:06:15.681Z,50.875046
2023-02-08T22:07:15.645Z,50.875160
2023-02-08T22:08:15.608Z,50.875340
2023-02-08T22:09:15.651Z,50.875259
2023-02-08T22:10:15.606Z,50.875366
2023-02-08T22:11:15.564Z,50.875412
2023-02-08T22:12:15.551Z,50.875401
2023-02-08T22:13:15.552Z,50.875401
2023-02-08T22:14:15.543Z,50.875401
2023-02-08T22:15:15.516Z,50.875275
2023-02-08T22:16:17.899Z,50.875229
2023-02-08T22:17:15.552Z,50.875229
2023-02-08T22:18:15.537Z,50.875229
2023-02-08T22:19:16.533Z,50.875229
2023-02-08T22:20:15.509Z,50.875229
2023-02-08T22:21:15.500Z,50.875229
2023-02-08T22:22:15.444Z,50.875229
2023-02-08T22:23:15.459Z,50.875229
2023-02-08T22:24:15.459Z,50.875229
2023-02-08T22:25:15.468Z,50.875229
2023-02-08T22:26:15.439Z,50.875229
2023-02-08T22:27:15.403Z,50.875492
2023-02-08T22:28:15.486Z,50.875492
2023-02-08T22:29:15.452Z,50.875645
2023-02-08T22:30:15.397Z,50.875259
2023-02-08T22:31:15.571Z,50.875088
2023-02-08T22:32:15.470Z,50.875248
2023-02-08T22:33:15.360Z,50.875156
2023-02-08T22:34:15.352Z,50.875156
2023-02-08T22:35:15.339Z,50.874382
2023-02-08T22:36:15.316Z,50.875038
2023-02-08T22:37:15.337Z,50.875004
2023-02-08T22:38:15.308Z,50.875038
2023-02-08T22:39:15.304Z,50.875217
2023-02-08T22:40:15.296Z,50.875248
2023-02-08T22:41:15.328Z,50.875191
2023-02-08T22:42:15.310Z,50.875103
2023-02-08T22:43:15.257Z,50.875164
2023-02-08T22:44:15.246Z,50.875126
2023-02-08T22:45:15.217Z,50.875259
2023-02-08T22:46:15.246Z,50.875141
2023-02-08T22:47:15.243Z,50.874928
2023-02-08T22:48:15.224Z,50.875172
2023-02-08T22:49:15.203Z,50.875225
2023-02-08T22:50:15.214Z,50.875290
2023-02-08T22:51:15.214Z,50.875145
2023-02-08T22:52:15.194Z,50.875191
2023-02-08T22:53:15.155Z,50.875076
2023-02-08T22:54:15.163Z,50.875214
2023-02-08T22:55:15.151Z,50.875217
2023-02-08T22:56:15.152Z,50.875175
2023-02-08T22:57:15.144Z,50.875221
2023-02-08T22:58:15.114Z,50.875278
2023-02-08T22:59:15.109Z,50.875080
2023-02-08T23:00:15.109Z,50.875080
2023-02-08T23:01:15.148Z,50.875080
2023-02-08T23:02:15.141Z,50.875080
2023-02-08T23:03:15.101Z,50.875328
2023-02-08T23:04:15.042Z,50.875221
2023-02-08T23:05:15.038Z,50.875320
2023-02-08T23:06:15.046Z,50.875248
2023-02-08T23:07:15.062Z,50.875301
2023-02-08T23:08:15.043Z,50.875305
2023-02-08T23:09:15.029Z,50.875248
2023-02-08T23:10:15.005Z,50.875259
2023-02-08T23:11:14.979Z,50.875401
2023-02-08T23:12:14.984Z,50.875370
2023-02-08T23:13:15.023Z,50.875431
2023-02-08T23:14:14.967Z,50.875431
2023-02-08T23:15:14.953Z,50.875427
2023-02-08T23:16:14.984Z,50.875507
2023-02-08T23:17:14.940Z,50.875443
2023-02-08T23:18:14.919Z,50.875393
2023-02-08T23:19:14.888Z,50.875374
2023-02-08T23:20:15.809Z,50.875412
2023-02-08T23:21:14.892Z,50.875397
2023-02-08T23:22:14.897Z,50.875404
2023-02-08T23:23:14.897Z,50.875412
2023-02-08T23:24:14.898Z,50.875431
2023-02-08T23:25:14.868Z,50.875511
2023-02-08T23:26:14.822Z,50.875610
2023-02-08T23:27:14.853Z,50.875488
2023-02-08T23:28:14.853Z,50.875546
2023-02-08T23:29:14.808Z,50.875534
2023-02-08T23:30:14.797Z,50.875492
2023-02-08T23:31:14.875Z,50.875420
2023-02-08T23:32:14.789Z,50.875450
2023-02-08T23:33:14.753Z,50.875332
2023-02-08T23:34:14.773Z,50.875366
2023-02-08T23:35:14.750Z,50.875446
2023-02-08T23:36:14.750Z,50.875412
2023-02-08T23:37:14.778Z,50.875431
2023-02-08T23:38:14.724Z,50.875446
2023-02-08T23:39:14.730Z,50.875557
2023-02-08T23:40:14.700Z,50.875500
2023-02-08T23:41:14.713Z,50.875488
2023-02-08T23:42:15.043Z,50.875458
2023-02-08T23:43:14.712Z,50.875439
2023-02-08T23:44:14.702Z,50.875370
2023-02-08T23:45:14.660Z,50.875378
2023-02-08T23:46:14.671Z,50.875431
2023-02-08T23:47:14.640Z,50.875385
2023-02-08T23:48:14.653Z,50.875469
2023-02-08T23:49:14.620Z,50.875477
2023-02-08T23:50:14.608Z,50.875389
2023-02-08T23:51:14.606Z,50.875267
2023-02-08T23:52:14.600Z,50.875439
2023-02-08T23:53:14.627Z,50.875393
2023-02-08T23:54:14.581Z,50.875385
2023-02-08T23:55:14.608Z,50.875488
2023-02-08T23:56:14.572Z,50.875404
2023-02-08T23:57:14.544Z,50.875362
2023-02-08T23:58:14.557Z,50.875431
2023-02-08T23:59:14.535Z,50.875286
